Time;durP1;ratioP1;P1;durP2;ratioP2;P2;SDS_P1;SDS_P2;PMS_P1;PMS_P2;Temp;Humidity;BMP_temperature;BMP_pressure;BME280_temperature;BME280_humidity;BME280_pressure;Samples;Min_cycle;Max_cycle;Signal;HPM_P1;HPM_P2
2023/07/23 00:01:28;;;;;;;4.18;2.30;;;;;;;27.87;39.33;99716.50;4499540;31;34791;-59
2023/07/23 00:03:57;;;;;;;4.03;2.40;;;;;;;27.85;39.28;99716.78;4500690;31;34954;-59
2023/07/23 00:06:24;;;;;;;5.85;2.45;;;;;;;27.84;39.24;99714.28;4500652;31;34350;-59
2023/07/23 00:08:52;;;;;;;5.82;2.20;;;;;;;27.83;39.11;99718.94;4500566;31;34029;-59
2023/07/23 00:11:20;;;;;;;3.62;2.30;;;;;;;27.82;39.13;99721.94;4500644;31;33634;-60
2023/07/23 00:13:47;;;;;;;3.53;2.40;;;;;;;27.79;39.19;99727.94;4490110;31;33830;-59
2023/07/23 00:16:15;;;;;;;3.55;2.30;;;;;;;27.78;39.06;99724.38;4484822;32;33460;-59
2023/07/23 00:18:42;;;;;;;4.15;2.35;;;;;;;27.77;38.97;99724.63;4484764;32;33521;-59
2023/07/23 00:21:10;;;;;;;6.15;2.45;;;;;;;27.77;38.97;99721.88;4485107;32;33594;-58
2023/07/23 00:23:37;;;;;;;6.07;2.75;;;;;;;27.74;38.99;99725.97;4484597;32;34557;-58
2023/07/23 00:26:05;;;;;;;4.28;2.55;;;;;;;27.74;38.90;99727.88;4484604;32;33159;-59
2023/07/23 00:28:33;;;;;;;5.30;2.12;;;;;;;27.73;38.90;99731.72;4484780;32;34866;-60
2023/07/23 00:31:01;;;;;;;6.47;2.87;;;;;;;27.69;38.93;99729.44;4484320;32;34772;-59
2023/07/23 00:33:28;;;;;;;4.00;2.28;;;;;;;27.70;39.00;99733.87;4484714;32;34931;-59
2023/07/23 00:35:56;;;;;;;3.97;2.33;;;;;;;27.67;38.88;99728.88;4484573;32;33721;-59
2023/07/23 00:38:23;;;;;;;4.10;2.47;;;;;;;27.66;38.83;99727.22;4483138;32;34900;-59
2023/07/23 00:40:52;;;;;;;4.78;2.60;;;;;;;27.65;38.72;99731.06;4484634;32;34388;-59
2023/07/23 00:43:20;;;;;;;4.87;2.55;;;;;;;27.63;38.74;99733.22;4484884;32;34562;-60
2023/07/23 00:45:47;;;;;;;4.57;2.37;;;;;;;27.63;38.72;99727.72;4484523;32;33143;-59
2023/07/23 00:48:15;;;;;;;4.18;2.53;;;;;;;27.61;38.73;99721.69;4484556;32;33881;-59
2023/07/23 00:50:42;;;;;;;3.92;2.22;;;;;;;27.60;38.78;99720.00;4483373;32;33981;-58
2023/07/23 00:53:10;;;;;;;5.20;2.55;;;;;;;27.60;38.75;99727.41;4484285;32;35007;-59
2023/07/23 00:55:38;;;;;;;6.40;2.50;;;;;;;27.58;38.82;99719.47;4484456;32;34396;-59
2023/07/23 00:58:06;;;;;;;3.67;2.37;;;;;;;27.57;38.84;99715.06;4483569;32;33778;-59
2023/07/23 01:00:33;;;;;;;4.53;2.80;;;;;;;27.55;38.79;99719.97;4484336;32;33773;-59
2023/07/23 01:03:01;;;;;;;5.80;2.40;;;;;;;27.55;38.64;99732.84;4484613;32;33831;-59
2023/07/23 01:05:29;;;;;;;4.62;2.50;;;;;;;27.53;38.62;99730.34;4484524;32;34058;-60
2023/07/23 01:07:56;;;;;;;4.03;2.50;;;;;;;27.53;38.55;99726.78;4483003;32;33831;-59
2023/07/23 01:10:24;;;;;;;4.15;2.37;;;;;;;27.51;38.27;99729.78;4483273;32;33709;-59
2023/07/23 01:12:52;;;;;;;3.85;2.30;;;;;;;27.51;38.35;99731.69;4487299;31;33690;-59
2023/07/23 01:15:19;;;;;;;5.65;2.45;;;;;;;27.50;38.34;99736.34;4498671;31;33510;-59
2023/07/23 01:17:47;;;;;;;5.03;2.92;;;;;;;27.50;38.30;99736.34;4500191;31;33930;-59
2023/07/23 01:20:14;;;;;;;5.50;2.58;;;;;;;27.50;38.16;99732.78;4498509;31;34965;-59
2023/07/23 01:22:42;;;;;;;3.85;2.40;;;;;;;27.49;38.04;99734.69;4500047;31;34774;-59
2023/07/23 01:25:10;;;;;;;5.62;2.75;;;;;;;27.47;38.28;99731.41;4500152;31;33686;-59
2023/07/23 01:27:38;;;;;;;5.97;2.70;;;;;;;27.46;38.33;99737.94;4500078;31;33934;-59
2023/07/23 01:30:08;;;;;;;4.25;2.53;;;;;;;27.47;38.32;99728.66;4499851;31;34661;-59
2023/07/23 01:32:36;;;;;;;5.72;2.60;;;;;;;27.46;38.44;99727.78;4500170;31;34359;-59
2023/07/23 01:35:11;;;;;;;5.60;2.55;;;;;;;27.46;38.29;99737.94;4499937;31;33745;-59
2023/07/23 01:37:38;;;;;;;4.93;2.50;;;;;;;27.45;38.24;99736.28;4498846;31;33752;-58
2023/07/23 01:40:06;;;;;;;5.53;2.75;;;;;;;27.45;38.25;99739.03;4498789;31;34002;-60
2023/07/23 01:42:34;;;;;;;3.72;2.45;;;;;;;27.44;38.34;99735.47;4498484;31;35499;-58
2023/07/23 01:45:05;;;;;;;5.20;3.00;;;;;;;27.44;38.52;99740.94;4485739;31;33282;-58
2023/07/23 01:47:33;;;;;;;7.70;2.62;;;;;;;27.43;38.67;99731.06;4499955;31;34198;-60
2023/07/23 01:50:00;;;;;;;4.68;2.47;;;;;;;27.44;38.59;99734.63;4499656;31;33955;-59
2023/07/23 01:52:29;;;;;;;4.68;2.60;;;;;;;27.42;38.61;99734.06;4499852;31;34270;-59
2023/07/23 01:54:57;;;;;;;5.35;2.45;;;;;;;27.42;38.55;99732.16;4499845;31;33887;-60
2023/07/23 01:57:25;;;;;;;4.75;2.58;;;;;;;27.41;38.64;99735.97;4499614;31;34885;-59
2023/07/23 01:59:53;;;;;;;6.25;2.67;;;;;;;27.41;38.73;99735.13;4499696;31;33968;-59
2023/07/23 02:02:20;;;;;;;6.55;2.92;;;;;;;27.40;38.75;99737.03;4499727;31;34227;-59
2023/07/23 02:04:48;;;;;;;5.68;2.55;;;;;;;27.38;38.70;99733.75;4499591;31;33397;-59
2023/07/23 02:07:15;;;;;;;5.90;2.47;;;;;;;27.39;38.74;99729.91;4499645;31;33878;-59
2023/07/23 02:09:43;;;;;;;3.65;2.50;;;;;;;27.38;38.88;99727.44;4499601;31;33695;-59
2023/07/23 02:12:11;;;;;;;6.55;2.53;;;;;;;27.36;38.86;99741.37;4499479;31;33951;-59
2023/07/23 02:14:38;;;;;;;6.85;2.80;;;;;;;27.37;38.80;99734.84;4499591;31;33113;-58
2023/07/23 02:17:06;;;;;;;5.40;2.65;;;;;;;27.36;38.89;99733.16;4499497;31;33949;-59
2023/07/23 02:19:34;;;;;;;4.82;2.70;;;;;;;27.34;38.92;99740.00;4499388;31;33917;-59
2023/07/23 02:22:02;;;;;;;4.78;2.90;;;;;;;27.33;38.93;99744.63;4499461;31;34107;-60
2023/07/23 02:24:30;;;;;;;4.05;2.45;;;;;;;27.32;38.94;99742.13;4500099;31;33446;-60
2023/07/23 02:26:57;;;;;;;4.97;2.90;;;;;;;27.32;38.84;99742.13;4501128;31;34805;-60
2023/07/23 02:29:25;;;;;;;3.85;2.40;;;;;;;27.32;38.88;99744.88;4501446;31;33886;-59
2023/07/23 02:31:52;;;;;;;4.90;2.92;;;;;;;27.32;38.84;99747.63;4501170;31;34556;-59
2023/07/23 02:34:20;;;;;;;4.95;3.05;;;;;;;27.30;38.74;99749.78;4501458;31;33814;-59
2023/07/23 02:36:48;;;;;;;5.10;2.92;;;;;;;27.26;38.66;99743.97;4501285;31;33759;-59
2023/07/23 02:39:15;;;;;;;5.12;2.92;;;;;;;27.24;38.73;99750.81;4501108;31;33943;-59
2023/07/23 02:41:43;;;;;;;5.32;3.03;;;;;;;27.22;38.79;99762.00;4501312;31;34057;-59
2023/07/23 02:44:12;;;;;;;4.05;2.67;;;;;;;27.23;38.86;99760.09;4501348;31;34513;-59
2023/07/23 02:46:39;;;;;;;5.03;2.72;;;;;;;27.21;38.85;99754.88;4501219;31;34125;-59
2023/07/23 02:49:07;;;;;;;5.28;2.90;;;;;;;27.20;38.94;99747.75;4501107;31;33817;-60
2023/07/23 02:51:35;;;;;;;5.97;2.50;;;;;;;27.20;38.98;99754.06;4501273;31;34797;-59
2023/07/23 02:54:03;;;;;;;5.97;2.70;;;;;;;27.19;39.03;99757.87;4501176;31;33712;-60
2023/07/23 02:56:30;;;;;;;5.65;2.95;;;;;;;27.18;38.87;99758.94;4501112;31;34034;-59
2023/07/23 02:58:58;;;;;;;5.97;3.08;;;;;;;27.18;38.90;99761.69;4501149;31;33541;-59
2023/07/23 03:01:26;;;;;;;5.68;2.83;;;;;;;27.18;39.02;99755.38;4501127;31;34589;-60
2023/07/23 03:03:54;;;;;;;5.45;3.08;;;;;;;27.18;39.04;99752.62;4501414;31;34494;-60
2023/07/23 03:06:22;;;;;;;8.32;3.12;;;;;;;27.16;39.03;99749.31;4501480;31;34557;-59
2023/07/23 03:08:49;;;;;;;4.97;2.72;;;;;;;27.16;38.95;99746.59;4501032;31;34001;-59
2023/07/23 03:11:17;;;;;;;4.95;2.70;;;;;;;27.15;39.01;99748.50;4501051;31;34531;-60
2023/07/23 03:13:45;;;;;;;5.12;2.90;;;;;;;27.14;39.05;99754.22;4490643;31;33469;-59
2023/07/23 03:16:12;;;;;;;5.70;3.05;;;;;;;27.13;39.06;99756.13;4485022;32;33821;-59
2023/07/23 03:18:40;;;;;;;5.47;3.12;;;;;;;27.13;39.12;99756.13;4485262;32;35172;-60
2023/07/23 03:21:08;;;;;;;8.90;3.42;;;;;;;27.12;39.05;99746.25;4485293;32;34555;-59
2023/07/23 03:23:35;;;;;;;4.53;2.55;;;;;;;27.10;39.06;99753.91;4485234;32;33710;-60
2023/07/23 03:26:03;;;;;;;6.15;2.95;;;;;;;27.10;39.17;99740.22;4485212;32;33796;-59
2023/07/23 03:28:31;;;;;;;5.10;3.05;;;;;;;27.09;39.23;99759.63;4485191;32;34806;-60
2023/07/23 03:30:58;;;;;;;5.18;3.20;;;;;;;27.07;39.30;99748.91;4483542;32;33420;-59
2023/07/23 03:33:27;;;;;;;5.15;2.67;;;;;;;27.07;39.28;99751.63;4485055;32;33689;-59
2023/07/23 03:35:54;;;;;;;4.20;2.60;;;;;;;27.06;39.32;99755.47;4484816;32;33595;-60
2023/07/23 03:38:22;;;;;;;5.62;3.15;;;;;;;27.05;39.34;99759.28;4485008;32;34022;-59
2023/07/23 03:40:50;;;;;;;5.37;2.70;;;;;;;27.05;39.42;99759.28;4485074;32;34735;-59
2023/07/23 03:43:18;;;;;;;5.57;2.87;;;;;;;27.05;39.41;99750.25;4485232;32;34077;-60
2023/07/23 03:45:45;;;;;;;6.50;2.70;;;;;;;27.05;39.42;99755.72;4484836;32;33671;-59
2023/07/23 03:48:13;;;;;;;5.22;3.08;;;;;;;27.04;39.36;99749.37;4485280;32;34046;-59
2023/07/23 03:50:42;;;;;;;5.07;2.70;;;;;;;27.03;39.33;99744.19;4485029;32;34310;-60
2023/07/23 03:53:09;;;;;;;5.90;3.00;;;;;;;27.02;39.38;99754.31;4484811;32;33616;-60
2023/07/23 03:55:37;;;;;;;5.05;2.70;;;;;;;27.01;39.33;99749.91;4485020;32;33908;-57
2023/07/23 03:58:04;;;;;;;4.95;2.97;;;;;;;27.01;39.36;99749.91;4484888;32;33840;-59
2023/07/23 04:00:32;;;;;;;5.57;3.03;;;;;;;27.01;39.34;99749.09;4484743;32;33861;-59
2023/07/23 04:03:03;;;;;;;8.57;2.83;;;;;;;27.00;39.37;99748.25;4484884;32;34679;-58
2023/07/23 04:05:30;;;;;;;5.28;2.90;;;;;;;26.99;39.46;99748.50;4485120;32;33787;-59
2023/07/23 04:07:58;;;;;;;5.97;2.75;;;;;;;26.98;39.44;99744.09;4484650;32;34766;-58
2023/07/23 04:10:26;;;;;;;4.95;3.10;;;;;;;26.98;39.46;99746.84;4484841;32;34046;-59
2023/07/23 04:12:54;;;;;;;5.18;2.95;;;;;;;26.96;39.44;99734.25;4489625;31;33424;-59
2023/07/23 04:15:21;;;;;;;6.55;3.10;;;;;;;26.96;39.49;99744.38;4500459;31;33783;-59
2023/07/23 04:17:49;;;;;;;5.82;2.80;;;;;;;26.95;39.52;99749.00;4500444;31;34933;-59
2023/07/23 04:20:17;;;;;;;4.32;2.83;;;;;;;26.95;39.50;99742.69;4500578;31;34027;-59
2023/07/23 04:22:45;;;;;;;5.00;2.85;;;;;;;26.94;39.52;99744.59;4500450;31;34372;-60
2023/07/23 04:25:13;;;;;;;5.12;2.75;;;;;;;26.96;39.52;99749.84;4500500;31;34888;-60
2023/07/23 04:27:40;;;;;;;5.40;2.90;;;;;;;26.92;39.63;99754.97;4500461;31;34714;-60
2023/07/23 04:30:09;;;;;;;4.18;2.67;;;;;;;26.92;39.63;99756.91;4500227;31;34178;-58
2023/07/23 04:32:37;;;;;;;5.05;2.65;;;;;;;26.91;39.79;99755.25;4500428;31;33308;-59
2023/07/23 04:35:05;;;;;;;4.28;2.78;;;;;;;26.92;39.73;99752.25;4500780;31;33773;-59
2023/07/23 04:37:32;;;;;;;7.43;3.30;;;;;;;26.92;39.77;99748.69;4500377;31;33843;-57
2023/07/23 04:40:00;;;;;;;5.95;3.20;;;;;;;26.91;39.88;99755.25;4500477;31;35119;-59
2023/07/23 04:42:27;;;;;;;5.20;2.97;;;;;;;26.91;39.95;99760.72;4500415;31;33827;-58
2023/07/23 04:44:55;;;;;;;5.37;3.03;;;;;;;26.91;40.00;99761.53;4500315;31;34218;-59
2023/07/23 04:47:23;;;;;;;4.95;2.70;;;;;;;26.91;39.95;99756.06;4499872;31;34010;-60
2023/07/23 04:49:51;;;;;;;4.22;2.75;;;;;;;26.91;40.00;99761.53;4500334;31;33908;-60
2023/07/23 04:52:18;;;;;;;5.12;2.83;;;;;;;26.92;39.90;99770.59;4500391;31;33582;-60
2023/07/23 04:54:46;;;;;;;4.28;2.75;;;;;;;26.92;39.92;99756.91;4500406;31;34013;-59
2023/07/23 04:57:13;;;;;;;10.27;3.17;;;;;;;26.93;39.92;99769.50;4500188;31;34476;-59
2023/07/23 04:59:41;;;;;;;4.87;2.95;;;;;;;26.93;39.89;99770.31;4500289;31;33967;-60
2023/07/23 05:02:09;;;;;;;5.95;3.15;;;;;;;26.95;39.93;99770.06;4500505;31;33678;-55
2023/07/23 05:04:36;;;;;;;6.53;2.80;;;;;;;26.94;39.92;99780.19;4500312;31;33809;-54
2023/07/23 05:07:04;;;;;;;6.30;2.85;;;;;;;26.94;40.04;99771.97;4500301;31;34125;-57
2023/07/23 05:09:31;;;;;;;5.10;2.80;;;;;;;26.96;40.07;99771.75;4500294;31;34276;-54
2023/07/23 05:11:59;;;;;;;5.15;3.10;;;;;;;26.96;40.04;99775.31;4500115;31;32808;-56
2023/07/23 05:14:27;;;;;;;4.75;2.65;;;;;;;26.97;40.07;99778.88;4500221;31;34096;-54
2023/07/23 05:16:55;;;;;;;4.97;2.75;;;;;;;26.98;40.19;99782.44;4500137;31;34123;-58
2023/07/23 05:19:22;;;;;;;7.10;3.03;;;;;;;26.99;40.24;99784.91;4500062;31;34813;-58
2023/07/23 05:21:50;;;;;;;4.53;2.78;;;;;;;27.00;40.27;99785.75;4500095;31;33579;-58
2023/07/23 05:24:18;;;;;;;5.30;3.00;;;;;;;26.99;40.33;99782.19;4500135;31;34673;-56
2023/07/23 05:26:45;;;;;;;4.93;2.90;;;;;;;27.00;40.41;99792.06;4499924;31;35377;-57
2023/07/23 05:29:13;;;;;;;4.50;2.80;;;;;;;27.04;40.38;99793.19;4500174;31;33753;-58
2023/07/23 05:31:41;;;;;;;4.78;2.67;;;;;;;27.05;40.32;99791.31;4499947;31;33599;-56
2023/07/23 05:34:08;;;;;;;4.87;2.87;;;;;;;27.06;40.29;99796.53;4499894;31;34546;-58
2023/07/23 05:36:36;;;;;;;5.43;3.10;;;;;;;27.06;40.41;99793.81;4500002;31;33981;-58
2023/07/23 05:39:03;;;;;;;5.55;3.25;;;;;;;27.07;40.46;99789.97;4499833;31;33924;-58
2023/07/23 05:41:31;;;;;;;5.22;2.97;;;;;;;27.07;40.38;99802.84;4499872;31;33552;-59
2023/07/23 05:43:58;;;;;;;6.35;3.50;;;;;;;27.07;40.45;99798.19;4499927;31;33634;-59
2023/07/23 05:46:26;;;;;;;5.12;2.85;;;;;;;27.06;40.48;99791.06;4499930;31;33693;-58
2023/07/23 05:48:53;;;;;;;6.87;3.47;;;;;;;27.05;40.51;99797.63;4499718;31;34746;-59
2023/07/23 05:51:21;;;;;;;7.05;3.35;;;;;;;27.06;40.57;99802.03;4499798;31;33705;-59
2023/07/23 05:53:49;;;;;;;5.90;3.60;;;;;;;27.07;40.59;99808.31;4472731;31;33856;-59
2023/07/23 05:56:16;;;;;;;6.70;3.47;;;;;;;27.06;40.65;99807.50;4499707;31;34884;-59
2023/07/23 05:58:44;;;;;;;6.95;3.45;;;;;;;27.07;40.67;99800.94;4499700;31;33519;-59
2023/07/23 06:01:11;;;;;;;5.60;3.50;;;;;;;27.07;40.71;99805.59;4499780;31;33743;-59
2023/07/23 06:03:39;;;;;;;8.15;3.83;;;;;;;27.06;40.79;99804.75;4499523;31;34238;-59
2023/07/23 06:06:19;;;;;;;4.87;3.20;;;;;;;27.09;40.79;99808.91;4499708;31;34681;-59
2023/07/23 06:08:47;;;;;;;6.90;3.55;;;;;;;27.08;40.71;99808.09;4499732;31;33933;-55
2023/07/23 06:11:15;;;;;;;5.72;3.35;;;;;;;27.07;40.71;99806.41;4499592;31;33419;-59
2023/07/23 06:13:42;;;;;;;5.53;2.87;;;;;;;27.08;40.79;99812.72;4489610;31;33794;-54
2023/07/23 06:16:10;;;;;;;5.95;3.40;;;;;;;27.08;40.81;99810.84;4483644;32;35234;-57
2023/07/23 06:18:38;;;;;;;6.40;3.47;;;;;;;27.08;40.80;99805.34;4483599;32;35163;-50
2023/07/23 06:21:05;;;;;;;6.18;3.40;;;;;;;27.10;40.86;99813.34;4483735;32;33198;-59
2023/07/23 06:23:33;;;;;;;6.50;3.22;;;;;;;27.09;40.91;99809.78;4483690;32;33811;-53
2023/07/23 06:26:01;;;;;;;6.18;3.20;;;;;;;27.08;40.92;99802.63;4486609;31;34461;-53
2023/07/23 06:28:28;;;;;;;6.87;3.47;;;;;;;27.07;40.94;99809.16;4499141;31;33875;-58
2023/07/23 06:30:56;;;;;;;6.03;3.30;;;;;;;27.07;41.08;99814.62;4491126;31;33365;-56
2023/07/23 06:33:24;;;;;;;6.20;3.45;;;;;;;27.09;41.05;99815.25;4490310;31;33839;-58
2023/07/23 06:35:51;;;;;;;7.65;3.37;;;;;;;27.09;41.05;99817.13;4490133;31;34600;-60
2023/07/23 06:38:19;;;;;;;6.43;4.00;;;;;;;27.09;41.04;99818.00;4489349;31;34032;-59
2023/07/23 06:40:54;;;;;;;7.95;3.35;;;;;;;27.10;41.17;99821.56;4491508;31;33166;-60
2023/07/23 06:43:22;;;;;;;6.97;4.20;;;;;;;27.11;41.28;99821.28;4491082;31;33829;-59
2023/07/23 06:45:51;;;;;;;8.18;3.30;;;;;;;27.12;41.27;99817.47;4489605;31;34891;-59
2023/07/23 06:48:19;;;;;;;6.22;3.58;;;;;;;27.13;41.33;99816.38;4489451;31;34142;-59
2023/07/23 06:50:47;;;;;;;6.28;4.03;;;;;;;27.15;41.35;99816.97;4491417;31;33617;-60
2023/07/23 06:53:14;;;;;;;5.15;3.35;;;;;;;27.16;41.39;99815.88;4487153;31;33739;-60
2023/07/23 06:55:57;;;;;;;5.85;3.83;;;;;;;27.18;41.45;99815.63;4490072;31;33965;-55
2023/07/23 06:58:26;;;;;;;7.57;3.75;;;;;;;27.22;41.41;99822.28;4491088;31;33817;-60
2023/07/23 07:00:54;;;;;;;8.35;4.10;;;;;;;27.20;41.51;99822.53;4483237;32;33791;-54
2023/07/23 07:03:21;;;;;;;11.85;3.75;;;;;;;27.24;41.52;99822.88;4483073;32;33820;-58
2023/07/23 07:05:49;;;;;;;11.48;3.90;;;;;;;27.24;41.61;99822.88;4482922;32;34064;-55
2023/07/23 07:08:18;;;;;;;11.00;4.28;;;;;;;27.27;41.57;99821.50;4482991;32;33924;-59
2023/07/23 07:10:49;;;;;;;7.07;3.83;;;;;;;27.28;41.50;99820.44;4482815;32;32724;-60
2023/07/23 07:13:17;;;;;;;10.63;4.37;;;;;;;27.29;41.44;99819.38;4492422;31;33888;-59
2023/07/23 07:15:45;;;;;;;7.65;4.05;;;;;;;27.31;41.39;99822.69;4501210;31;34028;-59
2023/07/23 07:18:12;;;;;;;9.60;4.30;;;;;;;27.32;41.39;99813.38;4500929;31;34181;-59
2023/07/23 07:20:40;;;;;;;8.23;3.72;;;;;;;27.32;41.36;99808.72;4500788;31;33507;-59
2023/07/23 07:23:08;;;;;;;7.65;3.65;;;;;;;27.35;41.32;99813.69;4500927;31;33750;-59
2023/07/23 07:25:35;;;;;;;7.18;3.97;;;;;;;27.36;41.34;99818.09;4500991;31;33887;-59
2023/07/23 07:28:03;;;;;;;12.50;3.35;;;;;;;27.37;41.32;99814.28;4499664;31;33802;-59
2023/07/23 07:30:31;;;;;;;6.93;3.60;;;;;;;27.38;41.32;99813.22;4500803;31;33543;-58
2023/07/23 07:32:58;;;;;;;7.35;3.90;;;;;;;27.40;41.33;99811.03;4492391;31;33746;-59
2023/07/23 07:35:26;;;;;;;5.47;2.90;;;;;;;27.41;41.25;99801.72;4493300;31;33625;-59
2023/07/23 07:37:53;;;;;;;7.25;3.62;;;;;;;27.43;41.25;99809.72;4491860;31;33716;-59
2023/07/23 07:40:21;;;;;;;6.53;3.47;;;;;;;27.44;41.24;99812.19;4492276;31;33716;-57
2023/07/23 07:42:49;;;;;;;6.45;3.35;;;;;;;27.44;41.24;99803.97;4489155;31;35106;-56
2023/07/23 07:45:16;;;;;;;9.38;4.03;;;;;;;27.45;41.24;99813.00;4485020;32;34826;-58
2023/07/23 07:47:44;;;;;;;5.65;3.35;;;;;;;27.47;41.22;99808.13;4484822;31;33953;-56
2023/07/23 07:50:12;;;;;;;6.60;3.20;;;;;;;27.48;41.21;99808.94;4487740;31;33613;-59
2023/07/23 07:52:39;;;;;;;6.15;3.33;;;;;;;27.49;41.18;99814.16;4495123;31;33470;-59
2023/07/23 07:55:07;;;;;;;8.18;3.40;;;;;;;27.50;41.18;99812.25;4493483;31;33639;-58
2023/07/23 07:57:35;;;;;;;5.75;3.58;;;;;;;27.51;41.17;99816.63;4484886;32;35097;-52
2023/07/23 08:00:03;;;;;;;7.65;3.70;;;;;;;27.50;41.15;99807.59;4498821;31;33653;-55
2023/07/23 08:02:37;;;;;;;6.43;3.70;;;;;;;27.52;41.12;99801.88;4500577;31;34035;-55
2023/07/23 08:05:06;;;;;;;5.37;3.15;;;;;;;27.53;41.08;99809.84;4500572;31;33603;-51
2023/07/23 08:07:35;;;;;;;7.20;3.60;;;;;;;27.54;41.16;99805.19;4491726;31;34818;-49
2023/07/23 08:10:02;;;;;;;7.40;3.25;;;;;;;27.57;41.27;99807.44;4483661;32;33157;-56
2023/07/23 08:12:30;;;;;;;7.03;3.90;;;;;;;27.57;41.40;99801.94;4487448;31;33829;-51
2023/07/23 08:14:58;;;;;;;7.40;4.00;;;;;;;27.57;41.48;99805.50;4470385;32;33780;-50
2023/07/23 08:17:25;;;;;;;6.62;3.65;;;;;;;27.58;41.55;99807.16;4487683;31;34051;-49
2023/07/23 08:19:53;;;;;;;5.12;3.37;;;;;;;27.60;41.59;99801.41;4489631;31;33569;-53
2023/07/23 08:22:21;;;;;;;7.80;4.18;;;;;;;27.60;41.72;99801.41;4489474;31;33931;-51
2023/07/23 08:24:49;;;;;;;9.73;4.00;;;;;;;27.61;41.73;99792.97;4487029;31;34886;-54
2023/07/23 08:27:17;;;;;;;7.68;3.90;;;;;;;27.62;41.77;99797.34;4484502;31;34486;-53
2023/07/23 08:29:45;;;;;;;8.27;3.25;;;;;;;27.62;41.74;99800.09;4483062;32;34046;-58
2023/07/23 08:32:19;;;;;;;5.40;3.62;;;;;;;27.64;41.69;99806.12;4470812;32;33729;-53
2023/07/23 08:34:47;;;;;;;6.57;3.50;;;;;;;27.65;41.65;99802.34;4470616;32;33732;-54
2023/07/23 08:37:15;;;;;;;7.57;3.83;;;;;;;27.65;41.71;99796.84;4496054;31;34050;-52
2023/07/23 08:39:44;;;;;;;5.15;3.47;;;;;;;27.66;41.76;99795.75;4500137;31;33816;-55
2023/07/23 08:42:23;;;;;;;6.10;3.60;;;;;;;27.65;41.75;99798.75;4484371;31;33898;-58
2023/07/23 08:45:14;;;;;;;6.75;3.60;;;;;;;27.68;41.68;99801.81;4499046;31;36269;-57
2023/07/23 08:47:42;;;;;;;6.18;3.53;;;;;;;27.71;41.74;99795.84;4499607;31;34930;-50
2023/07/23 08:50:09;;;;;;;6.62;3.70;;;;;;;27.69;41.74;99800.72;4475547;31;33413;-57
2023/07/23 08:52:37;;;;;;;6.37;3.45;;;;;;;27.68;41.73;99799.06;4496646;31;34063;-57
2023/07/23 08:55:05;;;;;;;6.62;3.30;;;;;;;27.68;41.65;99804.53;4472270;32;34537;-57
2023/07/23 08:57:33;;;;;;;7.15;3.55;;;;;;;27.69;41.65;99805.38;4483495;31;33959;-52
2023/07/23 09:00:01;;;;;;;8.10;3.72;;;;;;;27.69;41.68;99797.97;4458228;31;33694;-59
2023/07/23 09:02:28;;;;;;;9.30;3.60;;;;;;;27.69;41.64;99800.72;4497700;31;33756;-57
2023/07/23 09:04:56;;;;;;;6.30;3.47;;;;;;;27.69;41.62;99797.97;4497005;31;35190;-55
2023/07/23 09:07:24;;;;;;;6.65;3.40;;;;;;;27.69;41.60;99795.22;4498953;31;34566;-59
2023/07/23 09:09:51;;;;;;;6.93;3.45;;;;;;;27.70;41.56;99807.88;4474348;31;33709;-57
2023/07/23 09:12:19;;;;;;;6.07;3.17;;;;;;;27.71;41.54;99805.97;4499233;31;33705;-57
2023/07/23 09:14:46;;;;;;;7.37;3.67;;;;;;;27.70;41.51;99802.41;4499482;31;33637;-57
2023/07/23 09:17:18;;;;;;;8.52;3.67;;;;;;;27.71;41.52;99801.34;4500058;31;34702;-55
2023/07/23 09:19:46;;;;;;;7.07;3.33;;;;;;;27.72;41.49;99799.41;4498662;31;34169;-58
2023/07/23 09:22:15;;;;;;;6.80;3.92;;;;;;;27.72;41.48;99810.37;4498890;31;34488;-58
2023/07/23 09:24:43;;;;;;;5.43;3.40;;;;;;;27.71;41.46;99804.09;4499094;31;34790;-58
2023/07/23 09:27:11;;;;;;;5.93;3.42;;;;;;;27.74;41.42;99807.38;4500147;31;33924;-56
2023/07/23 09:29:40;;;;;;;4.97;3.05;;;;;;;27.71;41.42;99795.84;4499570;31;33495;-57
2023/07/23 09:32:25;;;;;;;5.55;3.30;;;;;;;27.71;41.42;99804.09;4499703;31;34346;-54
2023/07/23 09:34:57;;;;;;;5.95;3.00;;;;;;;27.75;41.37;99809.87;4498317;31;34009;-58
2023/07/23 09:37:28;;;;;;;6.07;3.60;;;;;;;27.73;41.40;99808.47;4500113;31;34281;-58
2023/07/23 09:39:58;;;;;;;5.78;3.22;;;;;;;27.73;41.40;99812.03;4499319;31;33583;-48
2023/07/23 09:42:26;;;;;;;7.15;2.97;;;;;;;27.73;41.39;99806.56;4498654;31;34695;-53
2023/07/23 09:44:54;;;;;;;5.22;3.03;;;;;;;27.74;41.37;99804.63;4499226;31;34649;-56
2023/07/23 09:47:23;;;;;;;6.18;3.55;;;;;;;27.73;41.36;99797.50;4471099;32;33793;-54
2023/07/23 09:49:53;;;;;;;5.00;3.10;;;;;;;27.74;41.36;99807.38;4494895;31;33505;-59
2023/07/23 09:52:37;;;;;;;5.32;3.03;;;;;;;27.74;41.33;99797.25;4499272;31;33697;-56
2023/07/23 09:55:05;;;;;;;5.78;3.10;;;;;;;27.76;41.29;99797.84;4498254;31;34786;-49
2023/07/23 09:57:33;;;;;;;5.87;3.17;;;;;;;27.76;41.30;99808.81;4485476;31;34169;-54
2023/07/23 10:00:02;;;;;;;6.40;3.05;;;;;;;27.75;41.29;99795.34;4472308;32;33202;-58
2023/07/23 10:02:38;;;;;;;5.65;3.20;;;;;;;27.74;41.29;99791.75;4483892;32;35027;-56
2023/07/23 10:05:06;;;;;;;4.90;2.80;;;;;;;27.76;41.26;99786.03;4495784;31;34028;-57
2023/07/23 10:07:34;;;;;;;6.78;2.80;;;;;;;27.75;41.26;99789.88;4499669;31;35674;-57
2023/07/23 10:10:01;;;;;;;5.10;2.97;;;;;;;27.75;41.26;99787.97;4480435;31;33524;-50
2023/07/23 10:12:29;;;;;;;5.72;3.17;;;;;;;27.75;41.25;99784.38;4498973;31;34844;-55
2023/07/23 10:14:56;;;;;;;6.32;2.78;;;;;;;27.77;41.24;99784.94;4499379;31;33993;-57
2023/07/23 10:17:24;;;;;;;6.45;3.05;;;;;;;27.76;41.25;99781.38;4497035;31;34169;-57
2023/07/23 10:19:52;;;;;;;5.60;3.00;;;;;;;27.77;41.24;99784.94;4498331;31;34359;-56
2023/07/23 10:22:21;;;;;;;5.30;3.45;;;;;;;27.77;41.24;99785.78;4484321;31;33748;-56
2023/07/23 10:24:52;;;;;;;5.57;3.05;;;;;;;27.77;41.24;99773.97;4481805;31;33857;-57
2023/07/23 10:27:20;;;;;;;5.20;2.90;;;;;;;27.78;41.22;99767.41;4483638;32;34239;-58
2023/07/23 10:30:17;;;;;;;4.78;2.97;;;;;;;27.78;41.19;99764.66;4495901;31;33587;-58
2023/07/23 10:32:45;;;;;;;6.40;3.22;;;;;;;27.80;41.17;99770.75;4499262;31;34768;-57
2023/07/23 10:35:12;;;;;;;6.05;3.22;;;;;;;27.78;41.21;99770.16;4488230;31;34756;-54
2023/07/23 10:37:40;;;;;;;6.93;2.60;;;;;;;27.77;41.20;99771.25;4483504;32;33990;-58
2023/07/23 10:40:08;;;;;;;6.47;3.30;;;;;;;27.78;41.19;99764.66;4497335;31;33757;-56
2023/07/23 10:42:36;;;;;;;5.12;3.17;;;;;;;27.78;41.18;99757.25;4499042;31;34522;-55
2023/07/23 10:45:24;;;;;;;4.95;2.97;;;;;;;27.79;41.18;99753.44;4499197;31;34843;-55
2023/07/23 10:47:58;;;;;;;5.85;3.47;;;;;;;27.81;41.14;99756.75;4501215;31;34726;-49
2023/07/23 10:50:29;;;;;;;6.15;3.20;;;;;;;27.80;41.17;99757.03;4501224;31;33843;-57
2023/07/23 10:53:07;;;;;;;6.93;3.08;;;;;;;27.77;41.18;99755.63;4501237;31;34735;-54
2023/07/23 10:55:34;;;;;;;5.15;2.90;;;;;;;27.80;41.14;99749.63;4501110;31;33800;-57
2023/07/23 10:58:12;;;;;;;4.82;3.15;;;;;;;27.79;41.15;99747.13;4501004;31;34693;-58
2023/07/23 11:01:06;;;;;;;6.22;3.08;;;;;;;27.81;41.13;99747.72;4500299;31;35165;-57
2023/07/23 11:03:33;;;;;;;5.00;2.85;;;;;;;27.83;41.09;99738.12;4496996;31;34258;-54
2023/07/23 11:06:01;;;;;;;4.72;2.85;;;;;;;27.81;41.11;99739.50;4487168;31;33897;-55
2023/07/23 11:08:29;;;;;;;5.03;2.83;;;;;;;27.80;41.12;99746.88;4497329;31;34155;-57
2023/07/23 11:11:00;;;;;;;5.20;2.90;;;;;;;27.81;41.14;99732.09;4498869;31;33215;-52
2023/07/23 11:13:34;;;;;;;6.72;3.10;;;;;;;27.80;41.20;99724.94;4491434;31;34599;-61
2023/07/23 11:16:02;;;;;;;5.12;2.97;;;;;;;27.81;41.31;99734.81;4493927;31;34912;-60
2023/07/23 11:18:31;;;;;;;7.18;3.20;;;;;;;27.84;41.70;99723.34;4493430;31;33938;-60
2023/07/23 11:21:04;;;;;;;6.12;3.20;;;;;;;27.84;41.53;99728.84;4492142;31;33820;-59
2023/07/23 11:23:33;;;;;;;8.23;3.33;;;;;;;27.87;41.35;99720.06;4490854;31;34864;-59
2023/07/23 11:26:00;;;;;;;8.07;3.33;;;;;;;27.88;41.29;99718.16;4490872;31;34677;-61
2023/07/23 11:28:29;;;;;;;7.40;3.00;;;;;;;27.89;41.35;99711.63;4491863;31;32717;-59
2023/07/23 11:30:59;;;;;;;5.60;2.70;;;;;;;27.89;41.37;99706.97;4491924;31;33451;-59
2023/07/23 11:33:28;;;;;;;;;;;;;;;27.90;41.37;99705.03;4498684;31;34822;-61
2023/07/23 11:35:55;;;;;;;6.30;3.00;;;;;;;28.01;41.33;99703.22;4499853;31;33928;-58
2023/07/23 11:38:27;;;;;;;5.50;2.90;;;;;;;27.93;41.49;99710.84;4499866;31;34226;-59
2023/07/23 11:40:57;;;;;;;6.72;3.50;;;;;;;27.94;41.56;99700.69;4500520;31;33699;-61